sensor_id;sensor_type;location;lat;lon;timestamp;pressure;altitude;pressure_sealevel;temperature;humidity
55685;BME280;41883;49.544;8.646;2023-02-11T00:00:37;102622.69;;;-0.25;81.59
55685;BME280;41883;49.544;8.646;2023-02-11T00:03:03;102614.72;;;-0.17;82.31
55685;BME280;41883;49.544;8.646;2023-02-11T00:05:32;102611.09;;;-0.08;82.40
55685;BME280;41883;49.544;8.646;2023-02-11T00:07:57;102610.88;;;0.03;82.26
55685;BME280;41883;49.544;8.646;2023-02-11T00:10:23;102606.34;;;0.12;83.12
55685;BME280;41883;49.544;8.646;2023-02-11T00:12:48;102606.25;;;0.15;82.20
55685;BME280;41883;49.544;8.646;2023-02-11T00:15:14;102604.31;;;0.24;81.80
55685;BME280;41883;49.544;8.646;2023-02-11T00:17:39;102602.34;;;0.35;81.26
55685;BME280;41883;49.544;8.646;2023-02-11T00:20:04;102600.38;;;0.46;81.72
55685;BME280;41883;49.544;8.646;2023-02-11T00:22:30;102604.44;;;0.58;81.46
55685;BME280;41883;49.544;8.646;2023-02-11T00:24:55;102600.78;;;0.65;81.59
55685;BME280;41883;49.544;8.646;2023-02-11T00:27:21;102597.06;;;0.75;81.13
55685;BME280;41883;49.544;8.646;2023-02-11T00:29:46;102601.19;;;0.84;80.78
55685;BME280;41883;49.544;8.646;2023-02-11T00:32:12;102608.91;;;0.89;80.64
55685;BME280;41883;49.544;8.646;2023-02-11T00:34:37;102594.97;;;0.90;80.52
55685;BME280;41883;49.544;8.646;2023-02-11T00:37:03;102602.78;;;0.90;80.66
55685;BME280;41883;49.544;8.646;2023-02-11T00:39:28;102608.91;;;0.89;80.02
55685;BME280;41883;49.544;8.646;2023-02-11T00:41:54;102603.69;;;0.89;80.22
55685;BME280;41883;49.544;8.646;2023-02-11T00:44:19;102600.19;;;0.88;80.21
55685;BME280;41883;49.544;8.646;2023-02-11T00:46:45;102597.69;;;0.85;80.62
55685;BME280;41883;49.544;8.646;2023-02-11T00:49:10;102596.84;;;0.84;80.00
55685;BME280;41883;49.544;8.646;2023-02-11T00:51:39;102589.94;;;0.83;80.06
55685;BME280;41883;49.544;8.646;2023-02-11T00:54:07;102591.66;;;0.83;80.22
55685;BME280;41883;49.544;8.646;2023-02-11T00:56:34;102589.06;;;0.83;80.06
55685;BME280;41883;49.544;8.646;2023-02-11T00:58:59;102600.38;;;0.82;80.13
55685;BME280;41883;49.544;8.646;2023-02-11T01:01:25;102609.97;;;0.80;80.59
55685;BME280;41883;49.544;8.646;2023-02-11T01:03:50;102605.69;;;0.77;80.07
55685;BME280;41883;49.544;8.646;2023-02-11T01:06:16;102598.78;;;0.76;80.16
55685;BME280;41883;49.544;8.646;2023-02-11T01:08:42;102604.84;;;0.77;79.87
55685;BME280;41883;49.544;8.646;2023-02-11T01:11:12;102598.78;;;0.76;80.05
55685;BME280;41883;49.544;8.646;2023-02-11T01:13:38;102603.09;;;0.77;80.20
55685;BME280;41883;49.544;8.646;2023-02-11T01:16:05;102602.16;;;0.80;79.86
55685;BME280;41883;49.544;8.646;2023-02-11T01:18:31;102587.34;;;0.82;80.18
55685;BME280;41883;49.544;8.646;2023-02-11T01:20:56;102589.00;;;0.86;79.98
55685;BME280;41883;49.544;8.646;2023-02-11T01:23:22;102590.69;;;0.87;79.89
55685;BME280;41883;49.544;8.646;2023-02-11T01:25:47;102589.66;;;0.93;79.81
55685;BME280;41883;49.544;8.646;2023-02-11T01:28:19;102592.97;;;0.99;79.87
55685;BME280;41883;49.544;8.646;2023-02-11T01:30:45;102589.38;;;1.05;79.57
55685;BME280;41883;49.544;8.646;2023-02-11T01:33:10;102591.84;;;1.10;79.55
55685;BME280;41883;49.544;8.646;2023-02-11T01:35:39;102585.63;;;1.15;79.50
55685;BME280;41883;49.544;8.646;2023-02-11T01:38:05;102586.34;;;1.22;79.32
55685;BME280;41883;49.544;8.646;2023-02-11T01:40:30;102567.97;;;1.26;79.38
55685;BME280;41883;49.544;8.646;2023-02-11T01:42:56;102573.94;;;1.30;79.45
55685;BME280;41883;49.544;8.646;2023-02-11T01:48:06;102562.47;;;1.36;78.88
55685;BME280;41883;49.544;8.646;2023-02-11T01:50:32;102559.84;;;1.37;78.80
55685;BME280;41883;49.544;8.646;2023-02-11T01:52:57;102556.34;;;1.38;78.97
55685;BME280;41883;49.544;8.646;2023-02-11T01:55:43;102547.53;;;1.42;78.76
55685;BME280;41883;49.544;8.646;2023-02-11T01:58:26;102554.47;;;1.43;78.78
55685;BME280;41883;49.544;8.646;2023-02-11T02:01:01;102544.88;;;1.45;78.83
55685;BME280;41883;49.544;8.646;2023-02-11T02:03:29;102543.97;;;1.45;78.54
55685;BME280;41883;49.544;8.646;2023-02-11T02:06:05;102542.28;;;1.44;78.34
55685;BME280;41883;49.544;8.646;2023-02-11T02:08:36;102535.41;;;1.41;78.67
55685;BME280;41883;49.544;8.646;2023-02-11T02:11:03;102524.16;;;1.39;78.55
55685;BME280;41883;49.544;8.646;2023-02-11T02:13:30;102527.69;;;1.38;78.55
55685;BME280;41883;49.544;8.646;2023-02-11T02:15:57;102524.31;;;1.33;78.96
55685;BME280;41883;49.544;8.646;2023-02-11T02:18:40;102518.22;;;1.34;78.64
55685;BME280;41883;49.544;8.646;2023-02-11T02:21:12;102509.50;;;1.35;78.50
55685;BME280;41883;49.544;8.646;2023-02-11T02:23:50;102517.41;;;1.32;78.96
55685;BME280;41883;49.544;8.646;2023-02-11T02:26:28;102506.91;;;1.35;78.90
55685;BME280;41883;49.544;8.646;2023-02-11T02:31:58;102505.81;;;1.42;78.72
55685;BME280;41883;49.544;8.646;2023-02-11T02:37:27;102503.09;;;1.47;78.52
55685;BME280;41883;49.544;8.646;2023-02-11T02:39:54;102498.69;;;1.49;78.73
55685;BME280;41883;49.544;8.646;2023-02-11T02:42:21;102491.78;;;1.48;78.76
55685;BME280;41883;49.544;8.646;2023-02-11T02:44:50;102490.06;;;1.47;78.61
55685;BME280;41883;49.544;8.646;2023-02-11T02:47:16;102492.75;;;1.44;78.82
55685;BME280;41883;49.544;8.646;2023-02-11T02:49:42;102496.25;;;1.43;78.42
55685;BME280;41883;49.544;8.646;2023-02-11T02:52:24;102494.59;;;1.40;78.17
55685;BME280;41883;49.544;8.646;2023-02-11T02:57:27;102482.56;;;1.36;78.50
55685;BME280;41883;49.544;8.646;2023-02-11T03:04:55;102492.34;;;1.28;78.94
55685;BME280;41883;49.544;8.646;2023-02-11T03:07:40;102482.75;;;1.28;78.93
55685;BME280;41883;49.544;8.646;2023-02-11T03:10:08;102487.13;;;1.28;78.95
55685;BME280;41883;49.544;8.646;2023-02-11T03:12:35;102493.25;;;1.27;79.00
55685;BME280;41883;49.544;8.646;2023-02-11T03:15:02;102492.41;;;1.26;78.65
55685;BME280;41883;49.544;8.646;2023-02-11T03:17:29;102490.66;;;1.25;79.17
55685;BME280;41883;49.544;8.646;2023-02-11T03:19:55;102501.06;;;1.27;78.96
55685;BME280;41883;49.544;8.646;2023-02-11T03:25:17;102507.09;;;1.29;78.51
55685;BME280;41883;49.544;8.646;2023-02-11T03:28:02;102512.31;;;1.29;78.66
55685;BME280;41883;49.544;8.646;2023-02-11T03:33:24;102507.03;;;1.31;78.57
55685;BME280;41883;49.544;8.646;2023-02-11T03:36:10;102507.03;;;1.31;78.87
55685;BME280;41883;49.544;8.646;2023-02-11T03:38:41;102507.00;;;1.32;78.50
55685;BME280;41883;49.544;8.646;2023-02-11T03:41:09;102499.16;;;1.34;78.54
55685;BME280;41883;49.544;8.646;2023-02-11T03:43:48;102494.81;;;1.33;79.17
55685;BME280;41883;49.544;8.646;2023-02-11T03:46:16;102483.53;;;1.32;78.88
55685;BME280;41883;49.544;8.646;2023-02-11T03:48:44;102480.84;;;1.35;78.67
55685;BME280;41883;49.544;8.646;2023-02-11T03:51:12;102474.75;;;1.36;78.92
55685;BME280;41883;49.544;8.646;2023-02-11T03:53:38;102471.13;;;1.40;78.97
55685;BME280;41883;49.544;8.646;2023-02-11T03:56:05;102476.13;;;1.48;78.54
55685;BME280;41883;49.544;8.646;2023-02-11T03:58:33;102485.63;;;1.51;78.66
55685;BME280;41883;49.544;8.646;2023-02-11T04:00:58;102484.72;;;1.52;78.49
55685;BME280;41883;49.544;8.646;2023-02-11T04:03:25;102485.53;;;1.54;78.69
55685;BME280;41883;49.544;8.646;2023-02-11T04:05:51;102478.53;;;1.54;78.56
55685;BME280;41883;49.544;8.646;2023-02-11T04:08:19;102478.50;;;1.56;78.44
55685;BME280;41883;49.544;8.646;2023-02-11T04:10:44;102482.00;;;1.55;78.68
55685;BME280;41883;49.544;8.646;2023-02-11T04:13:09;102473.28;;;1.56;78.42
55685;BME280;41883;49.544;8.646;2023-02-11T04:15:35;102463.75;;;1.55;78.33
55685;BME280;41883;49.544;8.646;2023-02-11T04:18:00;102462.88;;;1.56;78.43
55685;BME280;41883;49.544;8.646;2023-02-11T04:20:27;102457.75;;;1.53;78.47
55685;BME280;41883;49.544;8.646;2023-02-11T04:22:52;102462.97;;;1.53;78.50
55685;BME280;41883;49.544;8.646;2023-02-11T04:25:18;102455.22;;;1.49;78.48
55685;BME280;41883;49.544;8.646;2023-02-11T04:27:43;102447.53;;;1.45;78.18
55685;BME280;41883;49.544;8.646;2023-02-11T04:30:09;102439.00;;;1.40;78.34
55685;BME280;41883;49.544;8.646;2023-02-11T04:32:34;102429.56;;;1.36;78.54
55685;BME280;41883;49.544;8.646;2023-02-11T04:34:59;102425.34;;;1.32;78.58
55685;BME280;41883;49.544;8.646;2023-02-11T04:37:26;102423.69;;;1.29;78.64
55685;BME280;41883;49.544;8.646;2023-02-11T04:39:51;102428.16;;;1.24;78.91
55685;BME280;41883;49.544;8.646;2023-02-11T04:42:16;102416.94;;;1.22;79.00
55685;BME280;41883;49.544;8.646;2023-02-11T04:44:42;102425.75;;;1.18;78.65
55685;BME280;41883;49.544;8.646;2023-02-11T04:47:07;102417.22;;;1.13;78.97
55685;BME280;41883;49.544;8.646;2023-02-11T04:49:32;102433.91;;;1.05;79.44
55685;BME280;41883;49.544;8.646;2023-02-11T04:52:00;102440.94;;;1.03;79.56
55685;BME280;41883;49.544;8.646;2023-02-11T04:54:25;102443.63;;;1.00;79.79
55685;BME280;41883;49.544;8.646;2023-02-11T04:56:51;102447.19;;;0.96;79.78
55685;BME280;41883;49.544;8.646;2023-02-11T04:59:16;102451.59;;;0.94;79.67
55685;BME280;41883;49.544;8.646;2023-02-11T05:01:41;102451.69;;;0.91;79.28
55685;BME280;41883;49.544;8.646;2023-02-11T05:04:07;102455.25;;;0.87;79.38
55685;BME280;41883;49.544;8.646;2023-02-11T05:06:32;102445.88;;;0.81;79.27
55685;BME280;41883;49.544;8.646;2023-02-11T05:08:58;102448.59;;;0.77;79.41
55685;BME280;41883;49.544;8.646;2023-02-11T05:11:23;102450.50;;;0.70;79.75
55685;BME280;41883;49.544;8.646;2023-02-11T05:13:49;102466.25;;;0.66;79.93
55685;BME280;41883;49.544;8.646;2023-02-11T05:16:15;102464.63;;;0.61;80.87
55685;BME280;41883;49.544;8.646;2023-02-11T05:18:41;102467.22;;;0.61;80.42
55685;BME280;41883;49.544;8.646;2023-02-11T05:21:11;102474.22;;;0.59;80.04
55685;BME280;41883;49.544;8.646;2023-02-11T05:23:37;102481.16;;;0.59;79.94
55685;BME280;41883;49.544;8.646;2023-02-11T05:26:03;102482.00;;;0.59;80.13
55685;BME280;41883;49.544;8.646;2023-02-11T05:28:29;102482.00;;;0.61;80.26
55685;BME280;41883;49.544;8.646;2023-02-11T05:30:54;102473.25;;;0.63;80.59
55685;BME280;41883;49.544;8.646;2023-02-11T05:33:20;102450.59;;;0.67;80.96
55685;BME280;41883;49.544;8.646;2023-02-11T05:35:45;102438.25;;;0.74;80.23
55685;BME280;41883;49.544;8.646;2023-02-11T05:38:10;102443.41;;;0.77;80.65
55685;BME280;41883;49.544;8.646;2023-02-11T05:40:36;102440.59;;;0.83;80.29
55685;BME280;41883;49.544;8.646;2023-02-11T05:43:01;102436.22;;;0.85;80.58
55685;BME280;41883;49.544;8.646;2023-02-11T05:45:27;102440.44;;;0.89;80.24
55685;BME280;41883;49.544;8.646;2023-02-11T05:47:52;102440.44;;;0.91;80.47
55685;BME280;41883;49.544;8.646;2023-02-11T05:50:17;102441.28;;;0.91;80.68
55685;BME280;41883;49.544;8.646;2023-02-11T05:52:43;102434.28;;;0.93;80.04
55685;BME280;41883;49.544;8.646;2023-02-11T05:55:08;102447.19;;;0.96;80.04
55685;BME280;41883;49.544;8.646;2023-02-11T05:57:33;102446.28;;;0.97;80.08
55685;BME280;41883;49.544;8.646;2023-02-11T05:59:59;102443.66;;;0.99;80.31
55685;BME280;41883;49.544;8.646;2023-02-11T06:02:24;102436.56;;;1.04;80.64
55685;BME280;41883;49.544;8.646;2023-02-11T06:04:50;102427.91;;;1.03;80.23
55685;BME280;41883;49.544;8.646;2023-02-11T06:07:15;102436.53;;;1.05;80.42
55685;BME280;41883;49.544;8.646;2023-02-11T06:09:41;102441.69;;;1.07;80.40
55685;BME280;41883;49.544;8.646;2023-02-11T06:12:06;102445.06;;;1.11;80.00
55685;BME280;41883;49.544;8.646;2023-02-11T06:14:32;102440.69;;;1.11;80.16
55685;BME280;41883;49.544;8.646;2023-02-11T06:16:58;102433.72;;;1.12;80.12
55685;BME280;41883;49.544;8.646;2023-02-11T06:19:23;102423.41;;;1.09;80.14
55685;BME280;41883;49.544;8.646;2023-02-11T06:21:48;102425.97;;;1.10;79.88
55685;BME280;41883;49.544;8.646;2023-02-11T06:24:14;102431.38;;;1.02;80.14
55685;BME280;41883;49.544;8.646;2023-02-11T06:26:39;102424.56;;;0.98;80.42
55685;BME280;41883;49.544;8.646;2023-02-11T06:29:05;102431.56;;;0.96;80.04
55685;BME280;41883;49.544;8.646;2023-02-11T06:31:30;102428.25;;;0.91;80.34
55685;BME280;41883;49.544;8.646;2023-02-11T06:33:55;102437.84;;;0.89;80.32
55685;BME280;41883;49.544;8.646;2023-02-11T06:36:22;102447.41;;;0.89;80.21
55685;BME280;41883;49.544;8.646;2023-02-11T06:38:47;102447.47;;;0.85;80.46
55685;BME280;41883;49.544;8.646;2023-02-11T06:41:14;102448.41;;;0.83;80.84
55685;BME280;41883;49.544;8.646;2023-02-11T06:43:39;102441.56;;;0.80;80.78
55685;BME280;41883;49.544;8.646;2023-02-11T06:46:06;102448.59;;;0.77;81.06
55685;BME280;41883;49.544;8.646;2023-02-11T06:48:31;102452.97;;;0.76;80.99
55685;BME280;41883;49.544;8.646;2023-02-11T06:51:00;102451.22;;;0.77;81.09
55685;BME280;41883;49.544;8.646;2023-02-11T06:53:26;102445.09;;;0.78;80.71
55685;BME280;41883;49.544;8.646;2023-02-11T06:55:51;102445.00;;;0.81;80.70
55685;BME280;41883;49.544;8.646;2023-02-11T06:58:16;102457.06;;;0.85;80.74
55685;BME280;41883;49.544;8.646;2023-02-11T07:00:42;102459.53;;;0.90;80.78
55685;BME280;41883;49.544;8.646;2023-02-11T07:03:07;102451.59;;;0.94;80.87
55685;BME280;41883;49.544;8.646;2023-02-11T07:05:33;102459.28;;;0.99;80.50
55685;BME280;41883;49.544;8.646;2023-02-11T07:07:59;102453.97;;;1.02;80.72
55685;BME280;41883;49.544;8.646;2023-02-11T07:10:24;102459.03;;;1.08;80.33
55685;BME280;41883;49.544;8.646;2023-02-11T07:12:49;102459.72;;;1.15;80.03
55685;BME280;41883;49.544;8.646;2023-02-11T07:15:15;102453.59;;;1.16;80.02
55685;BME280;41883;49.544;8.646;2023-02-11T07:17:40;102448.38;;;1.16;79.85
55685;BME280;41883;49.544;8.646;2023-02-11T07:20:05;102451.84;;;1.16;79.88
55685;BME280;41883;49.544;8.646;2023-02-11T07:22:32;102457.84;;;1.20;79.93
55685;BME280;41883;49.544;8.646;2023-02-11T07:24:58;102455.13;;;1.23;79.80
55685;BME280;41883;49.544;8.646;2023-02-11T07:27:23;102460.19;;;1.29;79.85
55685;BME280;41883;49.544;8.646;2023-02-11T07:29:48;102453.97;;;1.33;79.48
55685;BME280;41883;49.544;8.646;2023-02-11T07:32:14;102454.78;;;1.35;79.30
55685;BME280;41883;49.544;8.646;2023-02-11T07:34:39;102452.94;;;1.39;79.06
55685;BME280;41883;49.544;8.646;2023-02-11T07:37:05;102453.88;;;1.36;78.92
55685;BME280;41883;49.544;8.646;2023-02-11T07:39:30;102458.09;;;1.40;78.79
55685;BME280;41883;49.544;8.646;2023-02-11T07:41:56;102462.47;;;1.40;78.80
55685;BME280;41883;49.544;8.646;2023-02-11T07:44:21;102474.53;;;1.42;78.64
55685;BME280;41883;49.544;8.646;2023-02-11T07:46:47;102466.72;;;1.42;78.61
55685;BME280;41883;49.544;8.646;2023-02-11T07:49:13;102477.16;;;1.42;78.46
55685;BME280;41883;49.544;8.646;2023-02-11T07:51:38;102476.16;;;1.46;78.51
55685;BME280;41883;49.544;8.646;2023-02-11T07:54:03;102479.38;;;1.55;78.44
55685;BME280;41883;49.544;8.646;2023-02-11T07:56:29;102467.94;;;1.60;78.15
55685;BME280;41883;49.544;8.646;2023-02-11T07:58:55;102475.50;;;1.69;78.01
55685;BME280;41883;49.544;8.646;2023-02-11T08:01:24;102479.56;;;1.78;77.70
55685;BME280;41883;49.544;8.646;2023-02-11T08:03:52;102475.94;;;1.84;77.59
55685;BME280;41883;49.544;8.646;2023-02-11T08:06:18;102473.91;;;1.92;77.14
55685;BME280;41883;49.544;8.646;2023-02-11T08:08:47;102478.88;;;2.00;77.32
55685;BME280;41883;49.544;8.646;2023-02-11T08:11:26;102479.44;;;2.09;77.04
55685;BME280;41883;49.544;8.646;2023-02-11T08:13:52;102476.66;;;2.16;76.31
55685;BME280;41883;49.544;8.646;2023-02-11T08:16:19;102472.94;;;2.23;76.30
55685;BME280;41883;49.544;8.646;2023-02-11T08:18:45;102465.81;;;2.28;75.82
55685;BME280;41883;49.544;8.646;2023-02-11T08:21:10;102463.97;;;2.31;74.83
55685;BME280;41883;49.544;8.646;2023-02-11T08:23:36;102471.44;;;2.42;75.14
55685;BME280;41883;49.544;8.646;2023-02-11T08:26:03;102471.09;;;2.53;75.22
55685;BME280;41883;49.544;8.646;2023-02-11T08:28:28;102472.47;;;2.63;74.81
55685;BME280;41883;49.544;8.646;2023-02-11T08:30:54;102478.28;;;2.71;74.11
55685;BME280;41883;49.544;8.646;2023-02-11T08:33:22;102473.53;;;2.83;74.06
55685;BME280;41883;49.544;8.646;2023-02-11T08:35:47;102475.94;;;2.89;73.26
55685;BME280;41883;49.544;8.646;2023-02-11T08:38:13;102469.47;;;2.99;73.45
55685;BME280;41883;49.544;8.646;2023-02-11T08:40:38;102464.09;;;3.04;73.34
55685;BME280;41883;49.544;8.646;2023-02-11T08:43:03;102467.59;;;3.03;72.99
55685;BME280;41883;49.544;8.646;2023-02-11T08:45:29;102468.50;;;3.02;72.28
55685;BME280;41883;49.544;8.646;2023-02-11T08:47:55;102463.16;;;3.05;72.61
55685;BME280;41883;49.544;8.646;2023-02-11T08:50:20;102461.31;;;3.08;72.51
55685;BME280;41883;49.544;8.646;2023-02-11T08:52:45;102473.44;;;3.09;72.36
55685;BME280;41883;49.544;8.646;2023-02-11T08:55:11;102475.00;;;3.15;71.81
55685;BME280;41883;49.544;8.646;2023-02-11T08:57:36;102483.38;;;3.25;72.21
55685;BME280;41883;49.544;8.646;2023-02-11T09:00:02;102490.97;;;3.31;72.17
55685;BME280;41883;49.544;8.646;2023-02-11T09:02:27;102492.44;;;3.38;72.20
55685;BME280;41883;49.544;8.646;2023-02-11T09:04:53;102492.75;;;3.54;71.59
55685;BME280;41883;49.544;8.646;2023-02-11T09:07:18;102499.63;;;3.56;70.95
55685;BME280;41883;49.544;8.646;2023-02-11T09:09:43;102494.94;;;3.65;71.52
55685;BME280;41883;49.544;8.646;2023-02-11T09:12:08;102498.25;;;3.70;70.75
55685;BME280;41883;49.544;8.646;2023-02-11T09:14:34;102496.31;;;3.75;70.63
55685;BME280;41883;49.544;8.646;2023-02-11T09:16:59;102490.63;;;3.86;70.52
55685;BME280;41883;49.544;8.646;2023-02-11T09:19:25;102501.59;;;3.95;70.08
55685;BME280;41883;49.544;8.646;2023-02-11T09:21:50;102510.72;;;4.07;69.98
55685;BME280;41883;49.544;8.646;2023-02-11T09:24:15;102513.66;;;4.21;69.33
55685;BME280;41883;49.544;8.646;2023-02-11T09:26:41;102519.38;;;4.31;69.32
55685;BME280;41883;49.544;8.646;2023-02-11T09:29:10;102515.34;;;4.44;69.35
55685;BME280;41883;49.544;8.646;2023-02-11T09:31:36;102515.22;;;4.47;67.60
55685;BME280;41883;49.544;8.646;2023-02-11T09:34:02;102503.69;;;4.52;67.99
55685;BME280;41883;49.544;8.646;2023-02-11T09:36:30;102507.72;;;4.60;68.55
55685;BME280;41883;49.544;8.646;2023-02-11T09:38:57;102507.97;;;4.75;67.34
55685;BME280;41883;49.544;8.646;2023-02-11T09:43:49;102508.94;;;4.93;67.46
55685;BME280;41883;49.544;8.646;2023-02-11T09:46:15;102504.09;;;5.04;66.75
55685;BME280;41883;49.544;8.646;2023-02-11T09:48:43;102496.47;;;5.18;66.59
55685;BME280;41883;49.544;8.646;2023-02-11T09:52:11;102497.50;;;5.35;66.36
55685;BME280;41883;49.544;8.646;2023-02-11T09:54:06;102497.63;;;5.50;65.80
55685;BME280;41883;49.544;8.646;2023-02-11T09:56:35;102493.47;;;5.65;65.50
55685;BME280;41883;49.544;8.646;2023-02-11T09:59:00;102500.59;;;5.81;65.72
55685;BME280;41883;49.544;8.646;2023-02-11T10:24:18;102503.09;;;6.56;61.29
55685;BME280;41883;49.544;8.646;2023-02-11T10:26:44;102506.66;;;6.73;61.43
55685;BME280;41883;49.544;8.646;2023-02-11T10:29:52;102505.78;;;6.90;61.84
55685;BME280;41883;49.544;8.646;2023-02-11T10:31:58;102500.28;;;6.94;61.60
55685;BME280;41883;49.544;8.646;2023-02-11T10:34:25;102496.84;;;7.10;60.69
55685;BME280;41883;49.544;8.646;2023-02-11T10:36:51;102502.81;;;7.29;61.04
55685;BME280;41883;49.544;8.646;2023-02-11T10:39:17;102500.81;;;7.34;60.14
55685;BME280;41883;49.544;8.646;2023-02-11T10:41:44;102499.72;;;7.54;61.48
55685;BME280;41883;49.544;8.646;2023-02-11T10:46:54;102491.31;;;7.48;60.38
55685;BME280;41883;49.544;8.646;2023-02-11T10:49:40;102488.19;;;7.57;60.74
55685;BME280;41883;49.544;8.646;2023-02-11T10:52:19;102500.50;;;7.56;60.29
55685;BME280;41883;49.544;8.646;2023-02-11T10:54:59;102490.50;;;7.63;60.26
55685;BME280;41883;49.544;8.646;2023-02-11T10:57:27;102498.13;;;7.52;60.00
55685;BME280;41883;49.544;8.646;2023-02-11T10:59:57;102493.94;;;7.79;61.05
55685;BME280;41883;49.544;8.646;2023-02-11T11:02:26;102497.94;;;8.02;58.79
55685;BME280;41883;49.544;8.646;2023-02-11T11:04:56;102488.00;;;8.54;60.72
55685;BME280;41883;49.544;8.646;2023-02-11T11:07:27;102497.13;;;9.07;59.04
55685;BME280;41883;49.544;8.646;2023-02-11T11:09:55;102489.03;;;9.80;59.11
55685;BME280;41883;49.544;8.646;2023-02-11T11:14:59;102496.47;;;10.15;53.72
55685;BME280;41883;49.544;8.646;2023-02-11T11:17:25;102496.81;;;9.96;51.96
55685;BME280;41883;49.544;8.646;2023-02-11T11:19:55;102501.63;;;10.04;56.03
55685;BME280;41883;49.544;8.646;2023-02-11T11:22:37;102505.03;;;10.33;56.67
55685;BME280;41883;49.544;8.646;2023-02-11T11:25:03;102506.59;;;10.88;55.08
55685;BME280;41883;49.544;8.646;2023-02-11T11:27:28;102504.94;;;11.62;51.76
55685;BME280;41883;49.544;8.646;2023-02-11T11:29:54;102513.81;;;12.11;51.22
55685;BME280;41883;49.544;8.646;2023-02-11T11:32:24;102515.91;;;12.19;49.69
55685;BME280;41883;49.544;8.646;2023-02-11T11:34:54;102518.09;;;12.60;52.19
55685;BME280;41883;49.544;8.646;2023-02-11T11:37:33;102522.84;;;12.32;53.13
55685;BME280;41883;49.544;8.646;2023-02-11T11:42:31;102522.59;;;11.12;49.35
55685;BME280;41883;49.544;8.646;2023-02-11T11:47:26;102522.69;;;10.98;54.95
55685;BME280;41883;49.544;8.646;2023-02-11T11:50:13;102512.41;;;10.80;54.58
55685;BME280;41883;49.544;8.646;2023-02-11T11:55:20;102497.00;;;10.20;54.00
55685;BME280;41883;49.544;8.646;2023-02-11T11:57:46;102486.28;;;9.82;53.89
55685;BME280;41883;49.544;8.646;2023-02-11T12:00:23;102486.44;;;9.66;54.42
55685;BME280;41883;49.544;8.646;2023-02-11T12:05:24;102464.84;;;9.59;53.93
55685;BME280;41883;49.544;8.646;2023-02-11T12:13:10;102450.72;;;9.87;54.22
55685;BME280;41883;49.544;8.646;2023-02-11T12:15:48;102459.31;;;10.31;54.59
55685;BME280;41883;49.544;8.646;2023-02-11T12:23:20;102464.66;;;10.16;53.58
55685;BME280;41883;49.544;8.646;2023-02-11T12:26:02;102462.16;;;10.00;53.71
55685;BME280;41883;49.544;8.646;2023-02-11T12:28:32;102461.88;;;9.78;54.01
55685;BME280;41883;49.544;8.646;2023-02-11T12:33:55;102462.59;;;9.53;54.57
55685;BME280;41883;49.544;8.646;2023-02-11T12:39:06;102463.91;;;9.46;55.77
55685;BME280;41883;49.544;8.646;2023-02-11T12:47:24;102459.88;;;9.40;55.50
55685;BME280;41883;49.544;8.646;2023-02-11T12:49:58;102465.72;;;9.45;55.86
55685;BME280;41883;49.544;8.646;2023-02-11T12:52:36;102466.09;;;9.53;55.40
55685;BME280;41883;49.544;8.646;2023-02-11T12:55:08;102458.34;;;9.50;56.08
55685;BME280;41883;49.544;8.646;2023-02-11T12:57:35;102454.19;;;9.61;55.76
55685;BME280;41883;49.544;8.646;2023-02-11T13:05:21;102461.47;;;9.43;56.07
55685;BME280;41883;49.544;8.646;2023-02-11T13:07:47;102454.78;;;9.51;56.13
55685;BME280;41883;49.544;8.646;2023-02-11T13:12:51;102447.41;;;9.56;56.05
55685;BME280;41883;49.544;8.646;2023-02-11T13:15:36;102443.91;;;9.56;56.32
55685;BME280;41883;49.544;8.646;2023-02-11T13:18:04;102448.66;;;9.36;57.89
55685;BME280;41883;49.544;8.646;2023-02-11T13:20:50;102443.59;;;9.19;57.87
55685;BME280;41883;49.544;8.646;2023-02-11T13:23:29;102443.88;;;9.14;57.92
55685;BME280;41883;49.544;8.646;2023-02-11T13:26:01;102439.00;;;9.08;57.90
55685;BME280;41883;49.544;8.646;2023-02-11T13:28:32;102442.28;;;9.12;58.24
55685;BME280;41883;49.544;8.646;2023-02-11T13:31:00;102446.63;;;9.13;57.98
55685;BME280;41883;49.544;8.646;2023-02-11T13:33:31;102438.50;;;9.02;58.31
55685;BME280;41883;49.544;8.646;2023-02-11T13:38:23;102440.38;;;9.14;58.10
55685;BME280;41883;49.544;8.646;2023-02-11T13:41:02;102433.03;;;9.19;58.40
55685;BME280;41883;49.544;8.646;2023-02-11T13:43:28;102426.25;;;9.15;58.25
55685;BME280;41883;49.544;8.646;2023-02-11T13:45:58;102428.59;;;9.05;58.94
55685;BME280;41883;49.544;8.646;2023-02-11T13:48:30;102425.88;;;9.07;58.56
55685;BME280;41883;49.544;8.646;2023-02-11T13:51:10;102431.91;;;9.09;58.82
55685;BME280;41883;49.544;8.646;2023-02-11T13:53:43;102427.00;;;9.03;59.38
55685;BME280;41883;49.544;8.646;2023-02-11T13:56:11;102429.75;;;9.01;58.89
55685;BME280;41883;49.544;8.646;2023-02-11T13:58:47;102436.06;;;8.99;59.31
55685;BME280;41883;49.544;8.646;2023-02-11T14:01:35;102437.28;;;8.93;58.92
55685;BME280;41883;49.544;8.646;2023-02-11T14:04:05;102445.88;;;8.82;59.40
55685;BME280;41883;49.544;8.646;2023-02-11T14:10:03;102431.25;;;8.77;59.98
55685;BME280;41883;49.544;8.646;2023-02-11T14:12:32;102420.81;;;8.75;59.66
55685;BME280;41883;49.544;8.646;2023-02-11T14:15:17;102441.22;;;8.57;61.76
55685;BME280;41883;49.544;8.646;2023-02-11T14:17:42;102424.81;;;8.52;61.79
55685;BME280;41883;49.544;8.646;2023-02-11T14:22:51;102430.63;;;8.43;62.88
55685;BME280;41883;49.544;8.646;2023-02-11T14:25:21;102435.38;;;8.36;62.51
55685;BME280;41883;49.544;8.646;2023-02-11T14:27:48;102437.72;;;8.26;62.93
55685;BME280;41883;49.544;8.646;2023-02-11T14:30:22;102446.00;;;8.20;63.24
55685;BME280;41883;49.544;8.646;2023-02-11T14:33:02;102441.06;;;8.14;62.73
55685;BME280;41883;49.544;8.646;2023-02-11T14:35:34;102444.06;;;8.08;62.84
55685;BME280;41883;49.544;8.646;2023-02-11T14:38:06;102446.09;;;8.03;63.69
55685;BME280;41883;49.544;8.646;2023-02-11T14:40:50;102442.28;;;7.93;63.80
55685;BME280;41883;49.544;8.646;2023-02-11T14:43:21;102445.13;;;7.90;64.00
55685;BME280;41883;49.544;8.646;2023-02-11T14:45:49;102445.44;;;7.83;64.52